createdAt,value
2023-01-26T00:04:21.418Z,32.07
2023-01-26T00:09:27.643Z,30.75
2023-01-26T00:14:33.719Z,30.49
2023-01-26T00:19:39.992Z,28.77
2023-01-26T00:24:46.104Z,27.10
2023-01-26T00:29:52.429Z,50.93
2023-01-26T00:34:58.515Z,28.06
2023-01-26T00:40:04.696Z,29.36
2023-01-26T00:45:10.719Z,26.63
2023-01-26T00:50:16.920Z,25.65
2023-01-26T00:55:22.998Z,26.20
2023-01-26T01:00:29.208Z,25.76
2023-01-26T01:05:35.271Z,26.55
2023-01-26T01:10:41.423Z,25.23
2023-01-26T01:15:47.564Z,28.20
2023-01-26T01:20:53.802Z,27.20
2023-01-26T01:25:59.919Z,27.89
2023-01-26T01:31:06.165Z,26.57
2023-01-26T01:36:12.167Z,26.99
2023-01-26T01:41:18.310Z,27.46
2023-01-26T01:46:24.547Z,26.52
2023-01-26T01:51:30.695Z,26.67
2023-01-26T01:56:36.840Z,27.42
2023-01-26T02:01:43.243Z,26.02
2023-01-26T02:06:49.269Z,25.82
2023-01-26T02:11:55.410Z,26.00
2023-01-26T02:17:01.520Z,26.68
2023-01-26T02:22:07.791Z,26.39
2023-01-26T02:27:13.856Z,25.87
2023-01-26T02:32:20.061Z,26.31
2023-01-26T02:37:26.184Z,26.43
2023-01-26T02:42:32.374Z,26.33
2023-01-26T02:47:38.451Z,22.26
2023-01-26T02:52:44.658Z,22.23
2023-01-26T02:57:50.769Z,20.92
2023-01-26T03:02:56.967Z,21.40
2023-01-26T03:08:03.024Z,21.08
2023-01-26T03:13:09.249Z,21.66
2023-01-26T03:18:15.371Z,22.36
2023-01-26T03:23:21.615Z,22.32
2023-01-26T03:28:28.071Z,21.33
2023-01-26T03:33:34.285Z,22.04
2023-01-26T03:38:40.359Z,22.03
2023-01-26T03:43:49.348Z,21.03
2023-01-26T03:48:55.432Z,22.86
2023-01-26T03:54:04.355Z,20.88
2023-01-26T03:59:10.767Z,19.04
2023-01-26T04:04:17.253Z,18.57
2023-01-26T04:09:23.361Z,16.16
2023-01-26T04:14:29.477Z,16.28
2023-01-26T04:19:35.448Z,13.20
2023-01-26T04:24:41.587Z,13.30
2023-01-26T04:29:48.013Z,14.36
2023-01-26T04:34:54.245Z,12.81
2023-01-26T04:40:00.426Z,13.07
2023-01-26T04:45:06.597Z,13.82
2023-01-26T04:50:13.159Z,13.50
2023-01-26T04:55:19.682Z,13.99
2023-01-26T05:00:25.862Z,14.58
2023-01-26T05:05:32.166Z,13.15
2023-01-26T05:10:38.281Z,12.63
2023-01-26T05:15:44.524Z,12.02
2023-01-26T05:20:50.637Z,12.23
2023-01-26T05:25:56.911Z,14.52
2023-01-26T05:31:03.061Z,12.57
2023-01-26T05:36:09.192Z,12.68
2023-01-26T05:41:15.274Z,12.71
2023-01-26T05:46:21.520Z,12.65
2023-01-26T05:51:28.038Z,12.16
2023-01-26T05:56:35.167Z,11.97
2023-01-26T06:01:43.601Z,12.91
2023-01-26T06:06:49.780Z,12.89
2023-01-26T06:11:55.855Z,11.91
2023-01-26T06:17:02.225Z,10.71
2023-01-26T06:22:09.078Z,11.91
2023-01-26T06:27:16.090Z,12.92
2023-01-26T06:32:22.297Z,11.88
2023-01-26T06:37:28.609Z,12.07
2023-01-26T06:42:34.717Z,11.29
2023-01-26T06:47:40.980Z,9.68
2023-01-26T06:52:47.359Z,9.94
2023-01-26T06:57:53.664Z,8.64
2023-01-26T07:03:03.045Z,8.90
2023-01-26T07:08:09.239Z,8.68
2023-01-26T07:13:15.313Z,7.39
2023-01-26T07:18:21.504Z,7.96
2023-01-26T07:23:27.621Z,6.86
2023-01-26T07:28:34.236Z,7.78
2023-01-26T07:33:40.288Z,6.56
2023-01-26T07:38:46.473Z,8.38
2023-01-26T07:43:52.582Z,7.26
2023-01-26T07:48:58.752Z,8.30
2023-01-26T07:54:04.841Z,9.58
2023-01-26T07:59:11.379Z,8.41
2023-01-26T08:04:17.441Z,8.23
2023-01-26T08:09:23.623Z,9.88
2023-01-26T08:14:45.118Z,8.57
2023-01-26T08:19:35.563Z,11.13
2023-01-26T08:24:41.624Z,11.88
2023-01-26T08:29:47.875Z,12.86
2023-01-26T08:34:53.997Z,14.33
2023-01-26T08:40:00.483Z,13.05
2023-01-26T08:45:06.567Z,14.10
2023-01-26T08:50:12.968Z,12.46
2023-01-26T08:55:18.839Z,16.31
2023-01-26T09:00:25.087Z,14.09
2023-01-26T09:05:31.132Z,14.64
2023-01-26T09:10:37.381Z,15.21
2023-01-26T09:15:43.542Z,19.04
2023-01-26T09:20:49.752Z,18.11
2023-01-26T09:25:55.841Z,16.17
2023-01-26T09:31:02.035Z,16.10
2023-01-26T09:36:08.078Z,17.35
2023-01-26T09:41:17.264Z,17.04
2023-01-26T09:46:23.420Z,19.25
2023-01-26T09:51:30.042Z,19.34
2023-01-26T09:56:36.122Z,20.35
2023-01-26T10:01:42.423Z,17.46
2023-01-26T10:06:48.566Z,19.61
2023-01-26T10:11:54.736Z,18.82
2023-01-26T10:17:00.940Z,18.21
2023-01-26T10:22:07.160Z,16.50
2023-01-26T10:27:13.239Z,20.74
2023-01-26T10:32:19.411Z,19.96
2023-01-26T10:37:25.643Z,20.14
2023-01-26T10:42:31.893Z,21.45
2023-01-26T10:47:37.958Z,25.24
2023-01-26T10:52:44.153Z,26.04
2023-01-26T10:57:50.352Z,25.28
2023-01-26T11:02:57.992Z,21.49
2023-01-26T11:08:06.742Z,24.64
2023-01-26T11:13:12.996Z,29.85
2023-01-26T11:18:19.094Z,29.52
2023-01-26T11:23:25.830Z,25.19
2023-01-26T11:28:31.914Z,22.91
2023-01-26T11:33:39.847Z,25.42
2023-01-26T11:38:44.083Z,19.02
2023-01-26T11:43:50.318Z,24.65
2023-01-26T11:48:59.427Z,19.79
2023-01-26T11:54:05.798Z,22.15
2023-01-26T11:59:11.867Z,20.25
2023-01-26T12:04:18.096Z,19.64
2023-01-26T12:09:24.193Z,20.34
2023-01-26T12:14:31.145Z,19.58
2023-01-26T12:19:37.221Z,15.95
2023-01-26T12:25:04.953Z,17.27
2023-01-26T12:29:49.914Z,17.89
2023-01-26T12:34:56.122Z,16.29
2023-01-26T12:40:02.317Z,15.55
2023-01-26T12:45:08.553Z,17.45
2023-01-26T12:50:15.120Z,13.15
2023-01-26T12:55:20.460Z,12.62
2023-01-26T13:00:26.587Z,12.43
2023-01-26T13:05:32.881Z,15.10
2023-01-26T13:10:38.954Z,12.45
2023-01-26T13:15:45.212Z,13.70
2023-01-26T13:20:51.300Z,12.21
2023-01-26T13:26:09.454Z,8.37
2023-01-26T13:31:03.433Z,26.82
2023-01-26T13:36:09.515Z,12.81
2023-01-26T13:41:15.586Z,9.16
2023-01-26T13:46:22.163Z,9.40
2023-01-26T13:51:28.222Z,7.75
2023-01-26T13:56:34.494Z,7.25
2023-01-26T14:01:44.115Z,6.66
2023-01-26T14:06:50.793Z,6.62
2023-01-26T14:11:56.926Z,7.28
2023-01-26T14:17:04.712Z,6.72
2023-01-26T14:22:08.891Z,7.51
2023-01-26T14:27:15.116Z,8.54
2023-01-26T14:32:21.835Z,7.03
2023-01-26T14:37:29.503Z,8.72
2023-01-26T14:42:35.922Z,9.07
2023-01-26T14:47:42.176Z,8.11
2023-01-26T14:52:48.298Z,7.79
2023-01-26T14:57:54.907Z,6.94
2023-01-26T15:03:00.979Z,4.74
2023-01-26T15:08:07.234Z,4.15
2023-01-26T15:13:13.335Z,4.44
2023-01-26T15:18:22.853Z,4.74
2023-01-26T15:23:30.385Z,5.22
2023-01-26T15:28:35.054Z,4.39
2023-01-26T15:33:41.193Z,5.51
2023-01-26T15:38:47.603Z,5.85
2023-01-26T15:43:54.585Z,5.36
2023-01-26T15:49:01.477Z,5.51
2023-01-26T15:54:07.553Z,5.88
2023-01-26T15:59:13.926Z,6.33
2023-01-26T16:04:20.017Z,5.04
2023-01-26T16:09:26.358Z,4.78
2023-01-26T16:14:32.524Z,5.76
2023-01-26T16:19:38.701Z,4.40
2023-01-26T16:24:44.765Z,6.51
2023-01-26T16:29:51.142Z,6.86
2023-01-26T16:34:57.274Z,5.78
2023-01-26T16:40:03.782Z,7.04
2023-01-26T16:45:10.271Z,6.31
2023-01-26T16:50:17.017Z,5.08
2023-01-26T16:55:23.116Z,6.25
2023-01-26T17:00:29.355Z,5.95
2023-01-26T17:05:36.409Z,5.62
2023-01-26T17:10:59.578Z,6.08
2023-01-26T17:15:48.206Z,5.93
2023-01-26T17:20:54.401Z,7.72
2023-01-26T17:26:00.477Z,5.71
2023-01-26T17:31:06.622Z,6.33
2023-01-26T17:36:13.151Z,9.57
2023-01-26T17:41:20.865Z,16.69
2023-01-26T17:46:29.534Z,8.71
2023-01-26T17:51:36.341Z,11.16
2023-01-26T17:56:42.831Z,9.74
2023-01-26T18:01:50.505Z,7.77
2023-01-26T18:06:57.053Z,11.55
2023-01-26T18:12:03.699Z,10.11
2023-01-26T18:17:10.736Z,11.86
2023-01-26T18:22:18.568Z,8.97
2023-01-26T18:27:25.088Z,10.81
2023-01-26T18:32:31.565Z,10.34
2023-01-26T18:37:38.281Z,9.85
2023-01-26T18:42:45.013Z,13.11
2023-01-26T18:47:51.536Z,12.36
2023-01-26T18:52:58.461Z,12.95
2023-01-26T18:58:05.065Z,11.05
2023-01-26T19:03:11.937Z,12.20
2023-01-26T19:08:18.272Z,12.48
2023-01-26T19:13:25.789Z,13.05
2023-01-26T19:18:32.423Z,10.31
2023-01-26T19:23:39.090Z,11.32
2023-01-26T19:28:45.734Z,13.31
2023-01-26T19:33:52.298Z,14.14
2023-01-26T19:38:59.965Z,11.06
2023-01-26T19:44:06.678Z,10.90
2023-01-26T19:49:13.513Z,12.59
2023-01-26T19:54:20.521Z,9.87
2023-01-26T19:59:26.925Z,10.50
2023-01-26T20:04:34.579Z,9.98
2023-01-26T20:09:41.106Z,9.03
2023-01-26T20:14:47.582Z,10.05
2023-01-26T20:19:53.712Z,7.71
2023-01-26T20:24:59.925Z,9.38
2023-01-26T20:30:06.103Z,7.73
2023-01-26T20:35:12.454Z,8.73
2023-01-26T20:40:18.615Z,8.80
2023-01-26T20:45:24.822Z,9.16
2023-01-26T20:50:30.979Z,8.59
2023-01-26T20:55:37.297Z,7.96
2023-01-26T21:00:43.412Z,8.66
2023-01-26T21:05:49.650Z,9.38
2023-01-26T21:10:55.822Z,9.25
2023-01-26T21:16:02.096Z,7.75
2023-01-26T21:21:08.198Z,9.37
2023-01-26T21:26:14.580Z,9.10
2023-01-26T21:31:20.969Z,9.62
2023-01-26T21:36:27.174Z,9.06
2023-01-26T21:41:33.264Z,9.30
2023-01-26T21:46:39.598Z,9.71
2023-01-26T21:51:45.809Z,8.84
2023-01-26T21:56:52.235Z,9.90
2023-01-26T22:01:58.345Z,9.35
2023-01-26T22:07:04.553Z,7.92
2023-01-26T22:12:10.700Z,6.80
2023-01-26T22:17:17.015Z,5.95
2023-01-26T22:22:24.384Z,4.56
2023-01-26T22:27:30.614Z,5.86
2023-01-26T22:32:36.787Z,5.11
2023-01-26T22:37:43.005Z,6.30
2023-01-26T22:42:49.155Z,8.19
2023-01-26T22:47:55.333Z,5.04
2023-01-26T22:53:01.540Z,4.83
2023-01-26T22:58:07.742Z,5.04
2023-01-26T23:03:14.150Z,5.18
2023-01-26T23:08:20.767Z,5.36
2023-01-26T23:13:26.863Z,5.16
2023-01-26T23:18:33.173Z,4.76
2023-01-26T23:23:39.331Z,4.64
2023-01-26T23:28:45.560Z,3.81
2023-01-26T23:33:51.695Z,4.61
2023-01-26T23:38:58.000Z,3.84
2023-01-26T23:44:04.160Z,3.51
2023-01-26T23:49:10.830Z,3.66
2023-01-26T23:54:16.907Z,3.55
2023-01-26T23:59:23.258Z,3.30
